sensor_id;sensor_type;location;lat;lon;timestamp;temperature;humidity
17495;DHT22;8864;51.970;4.614;2023-07-31T00:01:25;23.70;67.00
17495;DHT22;8864;51.970;4.614;2023-07-31T00:03:53;23.70;67.10
17495;DHT22;8864;51.970;4.614;2023-07-31T00:06:20;23.70;67.10
17495;DHT22;8864;51.970;4.614;2023-07-31T00:08:47;23.70;67.10
17495;DHT22;8864;51.970;4.614;2023-07-31T00:11:14;23.70;67.20
17495;DHT22;8864;51.970;4.614;2023-07-31T00:13:41;23.70;67.10
17495;DHT22;8864;51.970;4.614;2023-07-31T00:16:08;23.70;67.20
17495;DHT22;8864;51.970;4.614;2023-07-31T00:18:35;23.70;67.20
17495;DHT22;8864;51.970;4.614;2023-07-31T00:21:03;23.70;67.20
17495;DHT22;8864;51.970;4.614;2023-07-31T00:23:30;23.70;67.30
17495;DHT22;8864;51.970;4.614;2023-07-31T00:25:57;23.70;67.30
17495;DHT22;8864;51.970;4.614;2023-07-31T00:28:24;23.70;67.30
17495;DHT22;8864;51.970;4.614;2023-07-31T00:30:51;23.70;68.10
17495;DHT22;8864;51.970;4.614;2023-07-31T00:33:18;23.70;67.30
17495;DHT22;8864;51.970;4.614;2023-07-31T00:35:44;23.70;67.40
17495;DHT22;8864;51.970;4.614;2023-07-31T00:38:13;23.60;67.30
17495;DHT22;8864;51.970;4.614;2023-07-31T00:40:40;23.60;67.30
17495;DHT22;8864;51.970;4.614;2023-07-31T00:43:07;23.70;67.50
17495;DHT22;8864;51.970;4.614;2023-07-31T00:45:34;23.60;67.70
17495;DHT22;8864;51.970;4.614;2023-07-31T00:48:01;23.60;67.40
17495;DHT22;8864;51.970;4.614;2023-07-31T00:50:28;23.60;67.40
17495;DHT22;8864;51.970;4.614;2023-07-31T00:52:56;23.60;67.40
17495;DHT22;8864;51.970;4.614;2023-07-31T00:55:24;23.60;67.50
17495;DHT22;8864;51.970;4.614;2023-07-31T00:57:52;23.60;67.50
17495;DHT22;8864;51.970;4.614;2023-07-31T01:00:21;23.60;67.50
17495;DHT22;8864;51.970;4.614;2023-07-31T01:02:48;23.60;68.30
17495;DHT22;8864;51.970;4.614;2023-07-31T01:05:16;23.60;67.40
17495;DHT22;8864;51.970;4.614;2023-07-31T01:07:51;23.60;67.60
17495;DHT22;8864;51.970;4.614;2023-07-31T01:10:23;23.60;67.60
17495;DHT22;8864;51.970;4.614;2023-07-31T01:12:53;23.60;67.60
17495;DHT22;8864;51.970;4.614;2023-07-31T01:15:22;23.60;67.60
17495;DHT22;8864;51.970;4.614;2023-07-31T01:17:49;23.60;67.70
17495;DHT22;8864;51.970;4.614;2023-07-31T01:20:18;23.60;67.60
17495;DHT22;8864;51.970;4.614;2023-07-31T01:22:59;23.60;67.70
17495;DHT22;8864;51.970;4.614;2023-07-31T01:25:58;23.50;67.70
17495;DHT22;8864;51.970;4.614;2023-07-31T01:28:32;23.50;67.70
17495;DHT22;8864;51.970;4.614;2023-07-31T01:31:07;23.50;67.70
17495;DHT22;8864;51.970;4.614;2023-07-31T01:33:38;23.50;67.70
17495;DHT22;8864;51.970;4.614;2023-07-31T01:36:06;23.50;67.70
17495;DHT22;8864;51.970;4.614;2023-07-31T01:38:33;23.50;67.70
17495;DHT22;8864;51.970;4.614;2023-07-31T01:41:01;23.60;67.70
17495;DHT22;8864;51.970;4.614;2023-07-31T01:43:28;23.50;67.70
17495;DHT22;8864;51.970;4.614;2023-07-31T01:45:55;23.50;67.70
17495;DHT22;8864;51.970;4.614;2023-07-31T01:48:22;23.50;67.70
17495;DHT22;8864;51.970;4.614;2023-07-31T01:50:49;23.50;67.70
17495;DHT22;8864;51.970;4.614;2023-07-31T01:53:16;23.50;67.70
17495;DHT22;8864;51.970;4.614;2023-07-31T01:55:43;23.50;67.70
17495;DHT22;8864;51.970;4.614;2023-07-31T01:58:11;23.50;67.70
17495;DHT22;8864;51.970;4.614;2023-07-31T02:00:38;23.50;67.70
17495;DHT22;8864;51.970;4.614;2023-07-31T02:03:05;23.50;67.70
17495;DHT22;8864;51.970;4.614;2023-07-31T02:05:32;23.50;67.70
17495;DHT22;8864;51.970;4.614;2023-07-31T02:07:59;23.50;67.70
17495;DHT22;8864;51.970;4.614;2023-07-31T02:10:26;23.50;67.70
17495;DHT22;8864;51.970;4.614;2023-07-31T02:12:53;23.50;67.80
17495;DHT22;8864;51.970;4.614;2023-07-31T02:15:21;23.50;67.80
17495;DHT22;8864;51.970;4.614;2023-07-31T02:17:48;23.50;67.70
17495;DHT22;8864;51.970;4.614;2023-07-31T02:20:15;23.50;67.80
17495;DHT22;8864;51.970;4.614;2023-07-31T02:22:42;23.50;67.80
17495;DHT22;8864;51.970;4.614;2023-07-31T02:25:09;23.50;67.80
17495;DHT22;8864;51.970;4.614;2023-07-31T02:27:36;23.50;67.90
17495;DHT22;8864;51.970;4.614;2023-07-31T02:30:03;23.50;67.90
17495;DHT22;8864;51.970;4.614;2023-07-31T02:32:31;23.50;67.90
17495;DHT22;8864;51.970;4.614;2023-07-31T02:34:58;23.50;67.90
17495;DHT22;8864;51.970;4.614;2023-07-31T02:37:26;23.50;67.90
17495;DHT22;8864;51.970;4.614;2023-07-31T02:39:54;23.50;67.90
17495;DHT22;8864;51.970;4.614;2023-07-31T02:42:21;23.40;67.80
17495;DHT22;8864;51.970;4.614;2023-07-31T02:44:48;23.40;67.90
17495;DHT22;8864;51.970;4.614;2023-07-31T02:47:17;23.40;67.90
17495;DHT22;8864;51.970;4.614;2023-07-31T02:49:45;23.40;67.80
17495;DHT22;8864;51.970;4.614;2023-07-31T02:52:12;23.40;67.90
17495;DHT22;8864;51.970;4.614;2023-07-31T02:54:39;23.40;67.90
17495;DHT22;8864;51.970;4.614;2023-07-31T02:57:06;23.40;67.90
17495;DHT22;8864;51.970;4.614;2023-07-31T02:59:33;23.40;67.90
17495;DHT22;8864;51.970;4.614;2023-07-31T03:02:00;23.40;67.90
17495;DHT22;8864;51.970;4.614;2023-07-31T03:04:27;23.40;67.90
17495;DHT22;8864;51.970;4.614;2023-07-31T03:06:55;23.40;67.90
17495;DHT22;8864;51.970;4.614;2023-07-31T03:09:22;23.40;67.90
17495;DHT22;8864;51.970;4.614;2023-07-31T03:11:49;23.40;67.90
17495;DHT22;8864;51.970;4.614;2023-07-31T03:14:16;23.40;67.90
17495;DHT22;8864;51.970;4.614;2023-07-31T03:16:42;23.40;67.90
17495;DHT22;8864;51.970;4.614;2023-07-31T03:19:11;23.40;67.90
17495;DHT22;8864;51.970;4.614;2023-07-31T03:21:38;23.40;67.90
17495;DHT22;8864;51.970;4.614;2023-07-31T03:24:06;23.40;67.90
17495;DHT22;8864;51.970;4.614;2023-07-31T03:26:33;23.30;67.90
17495;DHT22;8864;51.970;4.614;2023-07-31T03:29:01;23.30;67.90
17495;DHT22;8864;51.970;4.614;2023-07-31T03:31:29;23.30;67.90
17495;DHT22;8864;51.970;4.614;2023-07-31T03:33:55;23.30;67.90
17495;DHT22;8864;51.970;4.614;2023-07-31T03:36:22;23.30;67.90
17495;DHT22;8864;51.970;4.614;2023-07-31T03:38:50;23.30;68.00
17495;DHT22;8864;51.970;4.614;2023-07-31T03:41:19;23.30;68.00
17495;DHT22;8864;51.970;4.614;2023-07-31T03:43:49;23.30;67.90
17495;DHT22;8864;51.970;4.614;2023-07-31T03:46:17;23.30;68.00
17495;DHT22;8864;51.970;4.614;2023-07-31T03:48:44;23.30;68.00
17495;DHT22;8864;51.970;4.614;2023-07-31T03:51:11;23.30;67.90
17495;DHT22;8864;51.970;4.614;2023-07-31T03:53:38;23.30;68.00
17495;DHT22;8864;51.970;4.614;2023-07-31T03:56:05;23.30;68.00
17495;DHT22;8864;51.970;4.614;2023-07-31T03:58:33;23.30;68.00
17495;DHT22;8864;51.970;4.614;2023-07-31T04:01:00;23.30;68.00
17495;DHT22;8864;51.970;4.614;2023-07-31T04:03:27;23.30;68.00
17495;DHT22;8864;51.970;4.614;2023-07-31T04:05:55;23.30;68.00
17495;DHT22;8864;51.970;4.614;2023-07-31T04:08:22;23.30;68.00
17495;DHT22;8864;51.970;4.614;2023-07-31T04:10:49;23.30;68.00
17495;DHT22;8864;51.970;4.614;2023-07-31T04:13:16;23.30;68.00
17495;DHT22;8864;51.970;4.614;2023-07-31T04:15:48;23.30;68.00
17495;DHT22;8864;51.970;4.614;2023-07-31T04:18:15;23.30;68.00
17495;DHT22;8864;51.970;4.614;2023-07-31T04:20:42;23.30;68.00
17495;DHT22;8864;51.970;4.614;2023-07-31T04:23:09;23.30;68.00
17495;DHT22;8864;51.970;4.614;2023-07-31T04:25:36;23.30;68.00
17495;DHT22;8864;51.970;4.614;2023-07-31T04:28:03;23.20;68.10
17495;DHT22;8864;51.970;4.614;2023-07-31T04:30:30;23.30;68.10
17495;DHT22;8864;51.970;4.614;2023-07-31T04:32:58;23.20;68.00
17495;DHT22;8864;51.970;4.614;2023-07-31T04:35:25;23.30;68.00
17495;DHT22;8864;51.970;4.614;2023-07-31T04:37:52;23.20;68.10
17495;DHT22;8864;51.970;4.614;2023-07-31T04:40:20;23.20;68.10
17495;DHT22;8864;51.970;4.614;2023-07-31T04:42:47;23.20;68.10
17495;DHT22;8864;51.970;4.614;2023-07-31T04:45:14;23.20;68.10
17495;DHT22;8864;51.970;4.614;2023-07-31T04:47:41;23.20;68.10
17495;DHT22;8864;51.970;4.614;2023-07-31T04:50:10;23.20;68.10
17495;DHT22;8864;51.970;4.614;2023-07-31T04:52:37;23.20;68.10
17495;DHT22;8864;51.970;4.614;2023-07-31T04:55:04;23.20;68.10
17495;DHT22;8864;51.970;4.614;2023-07-31T04:57:31;23.30;68.20
17495;DHT22;8864;51.970;4.614;2023-07-31T04:59:58;23.20;68.10
17495;DHT22;8864;51.970;4.614;2023-07-31T05:02:25;23.20;68.10
17495;DHT22;8864;51.970;4.614;2023-07-31T05:04:52;23.20;68.90
17495;DHT22;8864;51.970;4.614;2023-07-31T05:07:20;23.20;68.10
17495;DHT22;8864;51.970;4.614;2023-07-31T05:09:47;23.20;68.10
17495;DHT22;8864;51.970;4.614;2023-07-31T05:12:14;23.20;68.10
17495;DHT22;8864;51.970;4.614;2023-07-31T05:14:41;23.20;68.10
17495;DHT22;8864;51.970;4.614;2023-07-31T05:17:08;23.20;68.10
17495;DHT22;8864;51.970;4.614;2023-07-31T05:19:34;23.20;68.10
17495;DHT22;8864;51.970;4.614;2023-07-31T05:22:01;23.20;68.20
17495;DHT22;8864;51.970;4.614;2023-07-31T05:24:30;23.20;68.10
17495;DHT22;8864;51.970;4.614;2023-07-31T05:26:57;23.20;68.10
17495;DHT22;8864;51.970;4.614;2023-07-31T05:29:23;23.20;68.10
17495;DHT22;8864;51.970;4.614;2023-07-31T05:31:50;23.20;68.20
17495;DHT22;8864;51.970;4.614;2023-07-31T05:34:17;23.20;68.20
17495;DHT22;8864;51.970;4.614;2023-07-31T05:36:44;23.20;68.20
17495;DHT22;8864;51.970;4.614;2023-07-31T05:39:11;23.20;68.30
17495;DHT22;8864;51.970;4.614;2023-07-31T05:41:39;23.20;68.30
17495;DHT22;8864;51.970;4.614;2023-07-31T05:44:06;23.20;68.30
17495;DHT22;8864;51.970;4.614;2023-07-31T05:46:34;23.20;68.30
17495;DHT22;8864;51.970;4.614;2023-07-31T05:49:00;23.20;68.20
17495;DHT22;8864;51.970;4.614;2023-07-31T05:51:28;23.20;68.30
17495;DHT22;8864;51.970;4.614;2023-07-31T05:53:55;23.20;68.30
17495;DHT22;8864;51.970;4.614;2023-07-31T05:56:22;23.20;68.30
17495;DHT22;8864;51.970;4.614;2023-07-31T05:58:50;23.20;68.30
17495;DHT22;8864;51.970;4.614;2023-07-31T06:01:17;23.20;68.30
17495;DHT22;8864;51.970;4.614;2023-07-31T06:03:44;23.20;68.30
17495;DHT22;8864;51.970;4.614;2023-07-31T06:06:11;23.20;68.30
17495;DHT22;8864;51.970;4.614;2023-07-31T06:08:39;23.20;68.30
17495;DHT22;8864;51.970;4.614;2023-07-31T06:11:06;23.20;68.30
17495;DHT22;8864;51.970;4.614;2023-07-31T06:13:34;23.20;68.40
17495;DHT22;8864;51.970;4.614;2023-07-31T06:16:03;23.20;68.40
17495;DHT22;8864;51.970;4.614;2023-07-31T06:18:31;23.20;68.40
17495;DHT22;8864;51.970;4.614;2023-07-31T06:20:58;23.20;68.40
17495;DHT22;8864;51.970;4.614;2023-07-31T06:23:26;23.20;68.40
17495;DHT22;8864;51.970;4.614;2023-07-31T06:25:52;23.20;68.40
17495;DHT22;8864;51.970;4.614;2023-07-31T06:28:20;23.20;68.40
17495;DHT22;8864;51.970;4.614;2023-07-31T06:30:46;23.20;68.40
17495;DHT22;8864;51.970;4.614;2023-07-31T06:33:17;23.20;68.40
17495;DHT22;8864;51.970;4.614;2023-07-31T06:35:44;23.10;68.40
17495;DHT22;8864;51.970;4.614;2023-07-31T06:38:11;23.20;68.50
17495;DHT22;8864;51.970;4.614;2023-07-31T06:40:38;23.10;68.40
17495;DHT22;8864;51.970;4.614;2023-07-31T06:43:05;23.10;68.60
17495;DHT22;8864;51.970;4.614;2023-07-31T06:45:33;23.10;68.60
17495;DHT22;8864;51.970;4.614;2023-07-31T06:48:01;23.10;68.50
17495;DHT22;8864;51.970;4.614;2023-07-31T06:50:29;23.20;68.60
17495;DHT22;8864;51.970;4.614;2023-07-31T06:52:56;23.10;68.60
17495;DHT22;8864;51.970;4.614;2023-07-31T06:55:24;23.10;68.50
17495;DHT22;8864;51.970;4.614;2023-07-31T06:57:52;23.10;68.50
17495;DHT22;8864;51.970;4.614;2023-07-31T07:00:21;23.10;68.50
17495;DHT22;8864;51.970;4.614;2023-07-31T07:02:48;23.10;68.60
17495;DHT22;8864;51.970;4.614;2023-07-31T07:05:16;23.10;68.60
17495;DHT22;8864;51.970;4.614;2023-07-31T07:07:45;23.10;68.60
17495;DHT22;8864;51.970;4.614;2023-07-31T07:10:12;23.10;68.60
17495;DHT22;8864;51.970;4.614;2023-07-31T07:12:39;23.10;68.70
17495;DHT22;8864;51.970;4.614;2023-07-31T07:15:08;23.10;68.70
17495;DHT22;8864;51.970;4.614;2023-07-31T07:17:35;23.10;68.80
17495;DHT22;8864;51.970;4.614;2023-07-31T07:20:02;23.10;68.70
17495;DHT22;8864;51.970;4.614;2023-07-31T07:22:30;23.10;68.70
17495;DHT22;8864;51.970;4.614;2023-07-31T07:24:58;23.10;68.70
17495;DHT22;8864;51.970;4.614;2023-07-31T07:27:25;23.10;68.80
17495;DHT22;8864;51.970;4.614;2023-07-31T07:29:52;23.10;68.70
17495;DHT22;8864;51.970;4.614;2023-07-31T07:32:19;23.10;68.70
17495;DHT22;8864;51.970;4.614;2023-07-31T07:34:47;23.10;68.80
17495;DHT22;8864;51.970;4.614;2023-07-31T07:37:14;23.10;68.80
17495;DHT22;8864;51.970;4.614;2023-07-31T07:39:42;23.10;68.80
17495;DHT22;8864;51.970;4.614;2023-07-31T07:42:11;23.10;68.90
17495;DHT22;8864;51.970;4.614;2023-07-31T07:44:38;23.10;68.80
17495;DHT22;8864;51.970;4.614;2023-07-31T07:47:05;23.10;68.80
17495;DHT22;8864;51.970;4.614;2023-07-31T07:49:33;23.10;69.00
17495;DHT22;8864;51.970;4.614;2023-07-31T07:52:00;23.10;68.90
17495;DHT22;8864;51.970;4.614;2023-07-31T07:54:27;23.10;69.00
17495;DHT22;8864;51.970;4.614;2023-07-31T07:56:54;23.10;69.70
17495;DHT22;8864;51.970;4.614;2023-07-31T07:59:22;23.10;69.00
17495;DHT22;8864;51.970;4.614;2023-07-31T08:01:49;23.10;69.00
17495;DHT22;8864;51.970;4.614;2023-07-31T08:04:16;23.10;69.00
17495;DHT22;8864;51.970;4.614;2023-07-31T08:06:43;23.10;69.10
17495;DHT22;8864;51.970;4.614;2023-07-31T08:09:10;23.10;69.10
17495;DHT22;8864;51.970;4.614;2023-07-31T08:11:37;23.10;69.50
17495;DHT22;8864;51.970;4.614;2023-07-31T08:14:04;23.00;69.00
17495;DHT22;8864;51.970;4.614;2023-07-31T08:16:32;23.10;69.00
17495;DHT22;8864;51.970;4.614;2023-07-31T08:18:59;23.10;69.00
17495;DHT22;8864;51.970;4.614;2023-07-31T08:21:26;23.10;69.00
17495;DHT22;8864;51.970;4.614;2023-07-31T08:23:53;23.10;69.00
17495;DHT22;8864;51.970;4.614;2023-07-31T08:26:20;23.10;69.10
17495;DHT22;8864;51.970;4.614;2023-07-31T08:28:47;23.10;69.20
17495;DHT22;8864;51.970;4.614;2023-07-31T08:31:14;23.10;69.20
17495;DHT22;8864;51.970;4.614;2023-07-31T08:33:44;23.10;69.30
17495;DHT22;8864;51.970;4.614;2023-07-31T08:36:11;23.10;69.20
17495;DHT22;8864;51.970;4.614;2023-07-31T08:38:38;23.10;69.20
17495;DHT22;8864;51.970;4.614;2023-07-31T08:41:05;23.10;69.20
17495;DHT22;8864;51.970;4.614;2023-07-31T08:43:32;23.10;69.20
17495;DHT22;8864;51.970;4.614;2023-07-31T08:46:00;23.10;69.20
17495;DHT22;8864;51.970;4.614;2023-07-31T08:48:28;23.10;69.30
17495;DHT22;8864;51.970;4.614;2023-07-31T08:50:57;23.10;69.30
17495;DHT22;8864;51.970;4.614;2023-07-31T08:53:24;23.10;69.30
17495;DHT22;8864;51.970;4.614;2023-07-31T08:55:52;23.10;69.40
17495;DHT22;8864;51.970;4.614;2023-07-31T08:58:20;23.10;69.50
17495;DHT22;8864;51.970;4.614;2023-07-31T09:00:51;23.10;69.50
17495;DHT22;8864;51.970;4.614;2023-07-31T09:03:21;23.10;69.50
17495;DHT22;8864;51.970;4.614;2023-07-31T09:05:50;23.10;69.50
17495;DHT22;8864;51.970;4.614;2023-07-31T09:08:20;23.10;69.50
17495;DHT22;8864;51.970;4.614;2023-07-31T09:10:48;23.10;69.60
17495;DHT22;8864;51.970;4.614;2023-07-31T09:13:16;23.10;69.60
17495;DHT22;8864;51.970;4.614;2023-07-31T09:15:45;23.10;70.10
17495;DHT22;8864;51.970;4.614;2023-07-31T09:18:12;23.10;69.60
17495;DHT22;8864;51.970;4.614;2023-07-31T09:20:40;23.10;69.70
17495;DHT22;8864;51.970;4.614;2023-07-31T09:23:08;23.10;69.60
17495;DHT22;8864;51.970;4.614;2023-07-31T09:25:37;23.10;69.60
17495;DHT22;8864;51.970;4.614;2023-07-31T09:28:06;23.10;69.50
17495;DHT22;8864;51.970;4.614;2023-07-31T09:30:45;23.10;69.60
17495;DHT22;8864;51.970;4.614;2023-07-31T09:33:13;23.10;69.60
17495;DHT22;8864;51.970;4.614;2023-07-31T09:35:40;23.10;69.80
17495;DHT22;8864;51.970;4.614;2023-07-31T09:38:09;23.10;69.70
17495;DHT22;8864;51.970;4.614;2023-07-31T09:40:38;23.10;69.80
17495;DHT22;8864;51.970;4.614;2023-07-31T09:43:06;23.10;69.80
17495;DHT22;8864;51.970;4.614;2023-07-31T09:45:35;23.10;69.90
17495;DHT22;8864;51.970;4.614;2023-07-31T09:48:03;23.10;69.80
17495;DHT22;8864;51.970;4.614;2023-07-31T09:50:36;23.10;69.80
17495;DHT22;8864;51.970;4.614;2023-07-31T09:53:04;23.10;69.90
17495;DHT22;8864;51.970;4.614;2023-07-31T09:55:31;23.10;69.80
17495;DHT22;8864;51.970;4.614;2023-07-31T09:58:00;23.10;69.90
17495;DHT22;8864;51.970;4.614;2023-07-31T10:00:30;23.10;69.80
17495;DHT22;8864;51.970;4.614;2023-07-31T10:02:59;23.10;69.90
17495;DHT22;8864;51.970;4.614;2023-07-31T10:05:34;23.10;70.00
17495;DHT22;8864;51.970;4.614;2023-07-31T10:08:01;23.10;69.90
17495;DHT22;8864;51.970;4.614;2023-07-31T10:10:28;23.10;70.00
17495;DHT22;8864;51.970;4.614;2023-07-31T10:12:56;23.10;70.00
17495;DHT22;8864;51.970;4.614;2023-07-31T10:15:27;23.10;70.00
17495;DHT22;8864;51.970;4.614;2023-07-31T10:17:54;23.10;70.00
17495;DHT22;8864;51.970;4.614;2023-07-31T10:20:22;23.10;69.90
17495;DHT22;8864;51.970;4.614;2023-07-31T10:22:51;23.10;70.00
17495;DHT22;8864;51.970;4.614;2023-07-31T10:25:19;23.10;70.10
17495;DHT22;8864;51.970;4.614;2023-07-31T10:27:49;23.10;70.10
17495;DHT22;8864;51.970;4.614;2023-07-31T10:30:20;23.10;70.10
17495;DHT22;8864;51.970;4.614;2023-07-31T10:32:49;23.10;70.00
17495;DHT22;8864;51.970;4.614;2023-07-31T10:35:17;23.10;70.10
17495;DHT22;8864;51.970;4.614;2023-07-31T10:37:44;23.10;70.10
17495;DHT22;8864;51.970;4.614;2023-07-31T10:40:13;23.10;70.10
17495;DHT22;8864;51.970;4.614;2023-07-31T10:42:46;23.10;70.10
17495;DHT22;8864;51.970;4.614;2023-07-31T10:45:24;23.10;70.10
17495;DHT22;8864;51.970;4.614;2023-07-31T10:47:59;23.10;70.10
17495;DHT22;8864;51.970;4.614;2023-07-31T10:50:31;23.10;70.00
17495;DHT22;8864;51.970;4.614;2023-07-31T10:52:59;23.10;70.00
17495;DHT22;8864;51.970;4.614;2023-07-31T10:55:29;23.10;69.90
17495;DHT22;8864;51.970;4.614;2023-07-31T10:57:58;23.10;70.00
17495;DHT22;8864;51.970;4.614;2023-07-31T11:00:27;23.10;70.00
17495;DHT22;8864;51.970;4.614;2023-07-31T11:03:05;23.10;70.00
17495;DHT22;8864;51.970;4.614;2023-07-31T11:05:51;23.10;69.90
17495;DHT22;8864;51.970;4.614;2023-07-31T11:08:20;23.10;69.90
17495;DHT22;8864;51.970;4.614;2023-07-31T11:10:49;23.10;69.90
17495;DHT22;8864;51.970;4.614;2023-07-31T11:13:19;23.10;70.00
17495;DHT22;8864;51.970;4.614;2023-07-31T11:15:47;23.10;70.00
17495;DHT22;8864;51.970;4.614;2023-07-31T11:18:15;23.10;69.90
17495;DHT22;8864;51.970;4.614;2023-07-31T11:20:42;23.10;69.90
17495;DHT22;8864;51.970;4.614;2023-07-31T11:23:10;23.10;69.80
17495;DHT22;8864;51.970;4.614;2023-07-31T11:25:38;23.10;70.10
17495;DHT22;8864;51.970;4.614;2023-07-31T11:28:08;23.10;70.20
17495;DHT22;8864;51.970;4.614;2023-07-31T11:30:36;23.10;70.30
17495;DHT22;8864;51.970;4.614;2023-07-31T11:33:05;23.10;70.10
17495;DHT22;8864;51.970;4.614;2023-07-31T11:35:40;23.10;70.10
17495;DHT22;8864;51.970;4.614;2023-07-31T11:38:08;23.10;70.20
17495;DHT22;8864;51.970;4.614;2023-07-31T11:40:41;23.10;70.20
17495;DHT22;8864;51.970;4.614;2023-07-31T11:43:08;23.10;70.10
17495;DHT22;8864;51.970;4.614;2023-07-31T11:45:37;23.10;70.00
17495;DHT22;8864;51.970;4.614;2023-07-31T11:48:05;23.10;70.00
17495;DHT22;8864;51.970;4.614;2023-07-31T11:50:36;23.10;70.00
17495;DHT22;8864;51.970;4.614;2023-07-31T11:53:05;23.10;70.00
17495;DHT22;8864;51.970;4.614;2023-07-31T11:55:33;23.10;70.10
17495;DHT22;8864;51.970;4.614;2023-07-31T11:58:01;23.10;70.10
17495;DHT22;8864;51.970;4.614;2023-07-31T12:00:28;23.10;70.10
17495;DHT22;8864;51.970;4.614;2023-07-31T12:02:57;23.10;70.10
17495;DHT22;8864;51.970;4.614;2023-07-31T12:05:24;23.10;70.10
17495;DHT22;8864;51.970;4.614;2023-07-31T12:07:55;23.10;70.10
17495;DHT22;8864;51.970;4.614;2023-07-31T12:10:31;23.10;70.00
17495;DHT22;8864;51.970;4.614;2023-07-31T12:13:00;23.10;70.10
17495;DHT22;8864;51.970;4.614;2023-07-31T12:15:37;23.10;70.10
17495;DHT22;8864;51.970;4.614;2023-07-31T12:18:05;23.10;70.00
17495;DHT22;8864;51.970;4.614;2023-07-31T12:20:33;23.10;70.40
17495;DHT22;8864;51.970;4.614;2023-07-31T12:23:02;23.10;70.30
17495;DHT22;8864;51.970;4.614;2023-07-31T12:25:33;23.10;71.00
17495;DHT22;8864;51.970;4.614;2023-07-31T12:28:06;23.10;70.20
17495;DHT22;8864;51.970;4.614;2023-07-31T12:30:37;23.10;70.30
17495;DHT22;8864;51.970;4.614;2023-07-31T12:33:05;23.10;70.30
17495;DHT22;8864;51.970;4.614;2023-07-31T12:35:36;23.10;70.30
17495;DHT22;8864;51.970;4.614;2023-07-31T12:38:05;23.10;70.40
17495;DHT22;8864;51.970;4.614;2023-07-31T12:40:32;23.10;70.30
17495;DHT22;8864;51.970;4.614;2023-07-31T12:43:01;23.10;70.30
17495;DHT22;8864;51.970;4.614;2023-07-31T12:45:29;23.10;70.40
17495;DHT22;8864;51.970;4.614;2023-07-31T12:47:56;23.10;70.30
17495;DHT22;8864;51.970;4.614;2023-07-31T12:50:23;23.20;70.40
17495;DHT22;8864;51.970;4.614;2023-07-31T12:52:51;23.10;70.40
17495;DHT22;8864;51.970;4.614;2023-07-31T12:55:19;23.10;70.30
17495;DHT22;8864;51.970;4.614;2023-07-31T12:57:46;23.20;70.70
17495;DHT22;8864;51.970;4.614;2023-07-31T13:00:14;23.10;70.60
17495;DHT22;8864;51.970;4.614;2023-07-31T13:02:41;23.20;70.40
17495;DHT22;8864;51.970;4.614;2023-07-31T13:05:08;23.10;70.20
17495;DHT22;8864;51.970;4.614;2023-07-31T13:07:35;23.20;70.30
17495;DHT22;8864;51.970;4.614;2023-07-31T13:10:03;23.20;70.60
17495;DHT22;8864;51.970;4.614;2023-07-31T13:12:31;23.10;70.70
17495;DHT22;8864;51.970;4.614;2023-07-31T13:14:58;23.20;70.60
17495;DHT22;8864;51.970;4.614;2023-07-31T13:17:25;23.20;70.40
17495;DHT22;8864;51.970;4.614;2023-07-31T13:19:52;23.20;70.40
17495;DHT22;8864;51.970;4.614;2023-07-31T13:22:19;23.20;71.20
17495;DHT22;8864;51.970;4.614;2023-07-31T13:24:46;23.20;70.30
17495;DHT22;8864;51.970;4.614;2023-07-31T13:27:13;23.20;70.40
17495;DHT22;8864;51.970;4.614;2023-07-31T13:29:43;23.20;70.40
17495;DHT22;8864;51.970;4.614;2023-07-31T13:32:11;23.20;70.30
17495;DHT22;8864;51.970;4.614;2023-07-31T13:34:37;23.10;70.70
17495;DHT22;8864;51.970;4.614;2023-07-31T13:37:05;23.10;70.70
17495;DHT22;8864;51.970;4.614;2023-07-31T13:39:32;23.20;70.80
17495;DHT22;8864;51.970;4.614;2023-07-31T13:41:59;23.20;70.60
17495;DHT22;8864;51.970;4.614;2023-07-31T13:44:26;23.20;70.60
17495;DHT22;8864;51.970;4.614;2023-07-31T13:46:55;23.20;70.50
17495;DHT22;8864;51.970;4.614;2023-07-31T13:49:23;23.20;70.60
17495;DHT22;8864;51.970;4.614;2023-07-31T13:51:50;23.20;70.60
17495;DHT22;8864;51.970;4.614;2023-07-31T13:54:17;23.20;71.10
17495;DHT22;8864;51.970;4.614;2023-07-31T13:56:44;23.20;70.60
17495;DHT22;8864;51.970;4.614;2023-07-31T13:59:11;23.20;70.60
17495;DHT22;8864;51.970;4.614;2023-07-31T14:01:39;23.20;70.70
17495;DHT22;8864;51.970;4.614;2023-07-31T14:04:07;23.20;70.60
17495;DHT22;8864;51.970;4.614;2023-07-31T14:06:34;23.20;70.40
17495;DHT22;8864;51.970;4.614;2023-07-31T14:09:01;23.20;70.40
17495;DHT22;8864;51.970;4.614;2023-07-31T14:11:30;23.20;70.40
17495;DHT22;8864;51.970;4.614;2023-07-31T14:13:57;23.20;70.20
17495;DHT22;8864;51.970;4.614;2023-07-31T14:16:24;23.20;70.10
17495;DHT22;8864;51.970;4.614;2023-07-31T14:18:51;23.20;70.40
17495;DHT22;8864;51.970;4.614;2023-07-31T14:21:20;23.20;70.20
17495;DHT22;8864;51.970;4.614;2023-07-31T14:23:47;23.20;70.10
17495;DHT22;8864;51.970;4.614;2023-07-31T14:26:14;23.20;70.10
17495;DHT22;8864;51.970;4.614;2023-07-31T14:28:44;23.20;70.10
17495;DHT22;8864;51.970;4.614;2023-07-31T14:31:11;23.20;70.10
17495;DHT22;8864;51.970;4.614;2023-07-31T14:33:38;23.20;70.10
17495;DHT22;8864;51.970;4.614;2023-07-31T14:36:05;23.20;70.10
17495;DHT22;8864;51.970;4.614;2023-07-31T14:38:33;23.10;70.10
17495;DHT22;8864;51.970;4.614;2023-07-31T14:41:00;23.20;70.10
17495;DHT22;8864;51.970;4.614;2023-07-31T14:43:27;23.20;70.10
17495;DHT22;8864;51.970;4.614;2023-07-31T14:45:54;23.20;70.10
17495;DHT22;8864;51.970;4.614;2023-07-31T14:48:24;23.20;70.20
17495;DHT22;8864;51.970;4.614;2023-07-31T14:50:51;23.20;70.40
17495;DHT22;8864;51.970;4.614;2023-07-31T14:53:18;23.20;70.40
17495;DHT22;8864;51.970;4.614;2023-07-31T14:55:47;23.10;70.40
17495;DHT22;8864;51.970;4.614;2023-07-31T14:58:14;23.10;70.40
17495;DHT22;8864;51.970;4.614;2023-07-31T15:00:42;23.10;70.30
17495;DHT22;8864;51.970;4.614;2023-07-31T15:03:09;23.10;70.30
17495;DHT22;8864;51.970;4.614;2023-07-31T15:05:36;23.10;70.10
17495;DHT22;8864;51.970;4.614;2023-07-31T15:08:03;23.20;70.10
17495;DHT22;8864;51.970;4.614;2023-07-31T15:10:30;23.10;70.10
17495;DHT22;8864;51.970;4.614;2023-07-31T15:12:59;23.20;70.10
17495;DHT22;8864;51.970;4.614;2023-07-31T15:15:27;23.10;70.00
17495;DHT22;8864;51.970;4.614;2023-07-31T15:17:54;23.20;70.10
17495;DHT22;8864;51.970;4.614;2023-07-31T15:20:21;23.20;70.10
17495;DHT22;8864;51.970;4.614;2023-07-31T15:22:48;23.20;70.10
17495;DHT22;8864;51.970;4.614;2023-07-31T15:25:15;23.10;70.10
17495;DHT22;8864;51.970;4.614;2023-07-31T15:27:42;23.20;70.20
17495;DHT22;8864;51.970;4.614;2023-07-31T15:30:11;23.10;70.10
17495;DHT22;8864;51.970;4.614;2023-07-31T15:32:38;23.10;70.10
17495;DHT22;8864;51.970;4.614;2023-07-31T15:35:06;23.10;70.00
17495;DHT22;8864;51.970;4.614;2023-07-31T15:37:32;23.10;70.00
17495;DHT22;8864;51.970;4.614;2023-07-31T15:40:00;23.20;70.10
17495;DHT22;8864;51.970;4.614;2023-07-31T15:42:26;23.20;70.20
17495;DHT22;8864;51.970;4.614;2023-07-31T15:44:53;23.10;70.10
17495;DHT22;8864;51.970;4.614;2023-07-31T15:47:22;23.10;70.00
17495;DHT22;8864;51.970;4.614;2023-07-31T15:49:49;23.20;70.10